sensor_id;sensor_type;location;lat;lon;timestamp;temperature;humidity
5346;DHT22;2695;49.444;11.054;2022-12-11T00:00:39;1.80;99.90
5346;DHT22;2695;49.444;11.054;2022-12-11T00:03:07;1.80;99.90
5346;DHT22;2695;49.444;11.054;2022-12-11T00:05:42;1.80;99.90
5346;DHT22;2695;49.444;11.054;2022-12-11T00:08:13;1.90;99.90
5346;DHT22;2695;49.444;11.054;2022-12-11T00:10:46;2.70;99.90
5346;DHT22;2695;49.444;11.054;2022-12-11T00:13:15;2.00;99.90
5346;DHT22;2695;49.444;11.054;2022-12-11T00:15:43;2.00;99.90
5346;DHT22;2695;49.444;11.054;2022-12-11T00:18:12;2.00;99.90
5346;DHT22;2695;49.444;11.054;2022-12-11T00:20:41;2.70;99.90
5346;DHT22;2695;49.444;11.054;2022-12-11T00:23:09;0.40;99.90
5346;DHT22;2695;49.444;11.054;2022-12-11T00:25:41;2.60;99.90
5346;DHT22;2695;49.444;11.054;2022-12-11T00:28:11;2.00;99.90
5346;DHT22;2695;49.444;11.054;2022-12-11T00:30:40;2.00;99.90
5346;DHT22;2695;49.444;11.054;2022-12-11T00:33:10;2.00;99.90
5346;DHT22;2695;49.444;11.054;2022-12-11T00:35:42;2.70;99.90
5346;DHT22;2695;49.444;11.054;2022-12-11T00:38:46;2.00;99.90
5346;DHT22;2695;49.444;11.054;2022-12-11T00:42:38;1.70;99.90
5346;DHT22;2695;49.444;11.054;2022-12-11T00:45:26;2.70;99.90
5346;DHT22;2695;49.444;11.054;2022-12-11T00:48:13;2.00;99.90
5346;DHT22;2695;49.444;11.054;2022-12-11T00:51:03;2.70;99.90
5346;DHT22;2695;49.444;11.054;2022-12-11T00:53:33;1.90;99.90
5346;DHT22;2695;49.444;11.054;2022-12-11T00:56:09;2.00;99.90
5346;DHT22;2695;49.444;11.054;2022-12-11T00:58:50;1.90;99.90
5346;DHT22;2695;49.444;11.054;2022-12-11T01:01:27;1.90;99.90
5346;DHT22;2695;49.444;11.054;2022-12-11T01:04:10;1.80;99.90
5346;DHT22;2695;49.444;11.054;2022-12-11T01:07:33;1.60;99.90
5346;DHT22;2695;49.444;11.054;2022-12-11T01:10:40;1.30;99.90
5346;DHT22;2695;49.444;11.054;2022-12-11T01:20:02;1.10;99.90
5346;DHT22;2695;49.444;11.054;2022-12-11T01:22:43;2.90;99.90
5346;DHT22;2695;49.444;11.054;2022-12-11T01:25:46;1.50;99.90
5346;DHT22;2695;49.444;11.054;2022-12-11T01:28:47;1.80;99.90
5346;DHT22;2695;49.444;11.054;2022-12-11T01:31:41;1.60;99.90
5346;DHT22;2695;49.444;11.054;2022-12-11T01:34:27;2.20;99.90
5346;DHT22;2695;49.444;11.054;2022-12-11T01:37:19;1.30;99.90
5346;DHT22;2695;49.444;11.054;2022-12-11T01:40:11;1.30;99.90
5346;DHT22;2695;49.444;11.054;2022-12-11T01:43:14;1.20;99.90
5346;DHT22;2695;49.444;11.054;2022-12-11T01:46:14;1.70;99.90
5346;DHT22;2695;49.444;11.054;2022-12-11T01:49:00;1.70;99.90
5346;DHT22;2695;49.444;11.054;2022-12-11T01:55:14;2.80;99.90
5346;DHT22;2695;49.444;11.054;2022-12-11T01:58:48;2.30;99.90
5346;DHT22;2695;49.444;11.054;2022-12-11T02:02:02;2.30;99.90
5346;DHT22;2695;49.444;11.054;2022-12-11T02:04:52;1.70;99.90
5346;DHT22;2695;49.444;11.054;2022-12-11T02:08:00;1.80;99.90
5346;DHT22;2695;49.444;11.054;2022-12-11T02:11:30;1.20;99.90
5346;DHT22;2695;49.444;11.054;2022-12-11T02:18:26;2.30;99.90
5346;DHT22;2695;49.444;11.054;2022-12-11T02:21:45;2.80;99.90
5346;DHT22;2695;49.444;11.054;2022-12-11T02:25:11;2.50;99.90
5346;DHT22;2695;49.444;11.054;2022-12-11T02:31:20;2.70;99.90
5346;DHT22;2695;49.444;11.054;2022-12-11T02:34:26;2.20;99.90
5346;DHT22;2695;49.444;11.054;2022-12-11T02:37:14;1.80;99.90
5346;DHT22;2695;49.444;11.054;2022-12-11T02:40:08;2.60;99.90
5346;DHT22;2695;49.444;11.054;2022-12-11T02:42:41;3.30;99.90
5346;DHT22;2695;49.444;11.054;2022-12-11T02:45:40;2.60;99.90
5346;DHT22;2695;49.444;11.054;2022-12-11T02:48:30;2.20;99.90
5346;DHT22;2695;49.444;11.054;2022-12-11T02:51:04;2.30;99.90
5346;DHT22;2695;49.444;11.054;2022-12-11T02:53:36;1.80;99.90
5346;DHT22;2695;49.444;11.054;2022-12-11T02:56:11;1.80;99.90
5346;DHT22;2695;49.444;11.054;2022-12-11T02:58:45;1.80;99.90
5346;DHT22;2695;49.444;11.054;2022-12-11T03:01:21;1.90;99.90
5346;DHT22;2695;49.444;11.054;2022-12-11T03:03:51;1.80;99.90
5346;DHT22;2695;49.444;11.054;2022-12-11T03:06:23;1.80;99.90
5346;DHT22;2695;49.444;11.054;2022-12-11T03:08:53;1.80;99.90
5346;DHT22;2695;49.444;11.054;2022-12-11T03:11:22;1.80;99.90
5346;DHT22;2695;49.444;11.054;2022-12-11T03:13:51;1.90;99.90
5346;DHT22;2695;49.444;11.054;2022-12-11T03:16:28;2.00;99.90
5346;DHT22;2695;49.444;11.054;2022-12-11T03:19:07;1.90;99.90
5346;DHT22;2695;49.444;11.054;2022-12-11T03:21:43;1.90;99.90
5346;DHT22;2695;49.444;11.054;2022-12-11T03:24:17;1.90;99.90
5346;DHT22;2695;49.444;11.054;2022-12-11T03:26:51;1.90;99.90
5346;DHT22;2695;49.444;11.054;2022-12-11T03:29:25;1.90;99.90
5346;DHT22;2695;49.444;11.054;2022-12-11T03:31:58;1.90;99.90
5346;DHT22;2695;49.444;11.054;2022-12-11T03:34:32;1.90;99.90
5346;DHT22;2695;49.444;11.054;2022-12-11T03:37:04;1.90;99.90
5346;DHT22;2695;49.444;11.054;2022-12-11T03:39:38;2.00;99.90
5346;DHT22;2695;49.444;11.054;2022-12-11T03:42:10;1.90;99.90
5346;DHT22;2695;49.444;11.054;2022-12-11T03:44:39;1.90;99.90
5346;DHT22;2695;49.444;11.054;2022-12-11T03:47:11;1.90;99.90
5346;DHT22;2695;49.444;11.054;2022-12-11T03:49:44;1.80;99.90
5346;DHT22;2695;49.444;11.054;2022-12-11T03:52:14;1.80;99.90
5346;DHT22;2695;49.444;11.054;2022-12-11T03:54:45;1.90;99.90
5346;DHT22;2695;49.444;11.054;2022-12-11T03:57:17;1.80;99.90
5346;DHT22;2695;49.444;11.054;2022-12-11T03:59:46;1.80;99.90
5346;DHT22;2695;49.444;11.054;2022-12-11T04:02:15;1.80;99.90
5346;DHT22;2695;49.444;11.054;2022-12-11T04:04:45;1.80;99.90
5346;DHT22;2695;49.444;11.054;2022-12-11T04:07:14;1.80;99.90
5346;DHT22;2695;49.444;11.054;2022-12-11T04:09:42;1.80;99.90
5346;DHT22;2695;49.444;11.054;2022-12-11T04:12:10;1.80;99.90
5346;DHT22;2695;49.444;11.054;2022-12-11T04:14:39;1.80;99.90
5346;DHT22;2695;49.444;11.054;2022-12-11T04:17:24;1.80;99.90
5346;DHT22;2695;49.444;11.054;2022-12-11T04:20:11;1.70;99.90
5346;DHT22;2695;49.444;11.054;2022-12-11T04:22:57;1.70;99.90
5346;DHT22;2695;49.444;11.054;2022-12-11T04:25:42;1.60;99.90
5346;DHT22;2695;49.444;11.054;2022-12-11T04:28:10;1.50;99.90
5346;DHT22;2695;49.444;11.054;2022-12-11T04:30:39;1.60;99.90
5346;DHT22;2695;49.444;11.054;2022-12-11T04:33:07;1.60;99.90
5346;DHT22;2695;49.444;11.054;2022-12-11T04:35:37;1.60;99.90
5346;DHT22;2695;49.444;11.054;2022-12-11T04:38:05;1.60;99.90
5346;DHT22;2695;49.444;11.054;2022-12-11T04:40:34;1.60;99.90
5346;DHT22;2695;49.444;11.054;2022-12-11T04:43:02;1.60;99.90
5346;DHT22;2695;49.444;11.054;2022-12-11T04:45:31;1.70;99.90
5346;DHT22;2695;49.444;11.054;2022-12-11T04:47:59;1.70;99.90
5346;DHT22;2695;49.444;11.054;2022-12-11T04:50:28;1.70;99.90
5346;DHT22;2695;49.444;11.054;2022-12-11T04:52:57;1.70;99.90
5346;DHT22;2695;49.444;11.054;2022-12-11T04:55:26;1.60;99.90
5346;DHT22;2695;49.444;11.054;2022-12-11T04:57:59;1.60;99.90
5346;DHT22;2695;49.444;11.054;2022-12-11T05:00:29;1.50;99.90
5346;DHT22;2695;49.444;11.054;2022-12-11T05:03:01;1.50;99.90
5346;DHT22;2695;49.444;11.054;2022-12-11T05:05:36;1.50;99.90
5346;DHT22;2695;49.444;11.054;2022-12-11T05:11:44;1.40;99.90
5346;DHT22;2695;49.444;11.054;2022-12-11T05:14:44;1.30;99.90
5346;DHT22;2695;49.444;11.054;2022-12-11T05:17:27;1.30;99.90
5346;DHT22;2695;49.444;11.054;2022-12-11T05:20:02;1.20;99.90
5346;DHT22;2695;49.444;11.054;2022-12-11T05:22:37;1.10;99.90
5346;DHT22;2695;49.444;11.054;2022-12-11T05:25:13;1.10;99.90
5346;DHT22;2695;49.444;11.054;2022-12-11T05:27:50;1.10;99.90
5346;DHT22;2695;49.444;11.054;2022-12-11T05:30:28;1.10;99.90
5346;DHT22;2695;49.444;11.054;2022-12-11T05:33:08;1.10;99.90
5346;DHT22;2695;49.444;11.054;2022-12-11T05:39:25;1.00;99.90
5346;DHT22;2695;49.444;11.054;2022-12-11T05:42:23;1.00;99.90
5346;DHT22;2695;49.444;11.054;2022-12-11T05:45:00;1.10;99.90
5346;DHT22;2695;49.444;11.054;2022-12-11T05:47:35;1.00;99.90
5346;DHT22;2695;49.444;11.054;2022-12-11T05:50:10;0.90;99.90
5346;DHT22;2695;49.444;11.054;2022-12-11T05:52:43;0.80;99.90
5346;DHT22;2695;49.444;11.054;2022-12-11T05:56:16;0.80;99.90
5346;DHT22;2695;49.444;11.054;2022-12-11T05:59:16;0.70;99.90
5346;DHT22;2695;49.444;11.054;2022-12-11T06:06:39;0.50;99.90
5346;DHT22;2695;49.444;11.054;2022-12-11T06:13:41;0.40;99.90
5346;DHT22;2695;49.444;11.054;2022-12-11T06:16:52;0.30;99.90
5346;DHT22;2695;49.444;11.054;2022-12-11T06:20:15;0.20;99.90
5346;DHT22;2695;49.444;11.054;2022-12-11T06:23:12;0.20;99.90
5346;DHT22;2695;49.444;11.054;2022-12-11T06:25:59;0.30;99.90
5346;DHT22;2695;49.444;11.054;2022-12-11T06:29:41;0.20;99.90
5346;DHT22;2695;49.444;11.054;2022-12-11T06:37:11;0.20;99.90
5346;DHT22;2695;49.444;11.054;2022-12-11T06:40:32;0.10;99.90
5346;DHT22;2695;49.444;11.054;2022-12-11T06:43:11;-0.10;99.90
5346;DHT22;2695;49.444;11.054;2022-12-11T06:49:54;-0.20;99.90
5346;DHT22;2695;49.444;11.054;2022-12-11T07:25:22;-0.20;99.90
5346;DHT22;2695;49.444;11.054;2022-12-11T07:26:14;0.00;99.90
5346;DHT22;2695;49.444;11.054;2022-12-11T07:29:42;0.10;99.90
5346;DHT22;2695;49.444;11.054;2022-12-11T07:32:53;0.20;99.90
5346;DHT22;2695;49.444;11.054;2022-12-11T07:36:01;0.40;99.90
5346;DHT22;2695;49.444;11.054;2022-12-11T07:38:57;0.50;99.90
5346;DHT22;2695;49.444;11.054;2022-12-11T07:42:06;0.60;99.90
5346;DHT22;2695;49.444;11.054;2022-12-11T07:45:29;0.60;99.90
5346;DHT22;2695;49.444;11.054;2022-12-11T07:49:12;0.60;99.90
5346;DHT22;2695;49.444;11.054;2022-12-11T08:05:49;1.00;99.90
5346;DHT22;2695;49.444;11.054;2022-12-11T08:08:18;1.10;99.90
5346;DHT22;2695;49.444;11.054;2022-12-11T08:10:48;1.00;99.90
5346;DHT22;2695;49.444;11.054;2022-12-11T08:13:16;1.10;99.90
5346;DHT22;2695;49.444;11.054;2022-12-11T08:15:44;1.20;99.90
5346;DHT22;2695;49.444;11.054;2022-12-11T08:18:12;1.10;99.90
5346;DHT22;2695;49.444;11.054;2022-12-11T08:20:40;1.10;99.90
5346;DHT22;2695;49.444;11.054;2022-12-11T08:23:08;1.20;99.90
5346;DHT22;2695;49.444;11.054;2022-12-11T08:25:36;1.30;99.90
5346;DHT22;2695;49.444;11.054;2022-12-11T08:28:06;1.60;99.90
5346;DHT22;2695;49.444;11.054;2022-12-11T08:30:34;1.90;99.90
5346;DHT22;2695;49.444;11.054;2022-12-11T08:33:02;2.20;99.90
5346;DHT22;2695;49.444;11.054;2022-12-11T08:35:30;2.40;99.90
5346;DHT22;2695;49.444;11.054;2022-12-11T08:37:58;2.50;99.90
5346;DHT22;2695;49.444;11.054;2022-12-11T08:40:26;2.70;99.90
5346;DHT22;2695;49.444;11.054;2022-12-11T08:42:54;2.80;99.90
5346;DHT22;2695;49.444;11.054;2022-12-11T08:45:24;2.80;99.90
5346;DHT22;2695;49.444;11.054;2022-12-11T08:47:53;2.70;99.90
5346;DHT22;2695;49.444;11.054;2022-12-11T08:50:21;2.60;99.90
5346;DHT22;2695;49.444;11.054;2022-12-11T08:52:49;2.50;99.90
5346;DHT22;2695;49.444;11.054;2022-12-11T08:55:17;2.50;99.90
5346;DHT22;2695;49.444;11.054;2022-12-11T08:57:45;2.40;99.90
5346;DHT22;2695;49.444;11.054;2022-12-11T09:00:14;2.30;99.90
5346;DHT22;2695;49.444;11.054;2022-12-11T09:02:44;2.30;99.90
5346;DHT22;2695;49.444;11.054;2022-12-11T09:05:13;2.40;99.90
5346;DHT22;2695;49.444;11.054;2022-12-11T09:07:42;2.40;99.90
5346;DHT22;2695;49.444;11.054;2022-12-11T09:10:11;2.40;99.90
5346;DHT22;2695;49.444;11.054;2022-12-11T09:12:39;2.40;99.90
5346;DHT22;2695;49.444;11.054;2022-12-11T09:15:07;2.50;99.90
5346;DHT22;2695;49.444;11.054;2022-12-11T09:17:36;2.60;99.90
5346;DHT22;2695;49.444;11.054;2022-12-11T09:20:07;2.60;99.90
5346;DHT22;2695;49.444;11.054;2022-12-11T09:22:35;2.70;99.90
5346;DHT22;2695;49.444;11.054;2022-12-11T09:25:04;2.70;99.90
5346;DHT22;2695;49.444;11.054;2022-12-11T09:27:33;2.70;99.90
5346;DHT22;2695;49.444;11.054;2022-12-11T09:30:01;2.80;99.90
5346;DHT22;2695;49.444;11.054;2022-12-11T09:32:29;2.80;99.90
5346;DHT22;2695;49.444;11.054;2022-12-11T09:34:57;2.90;99.90
5346;DHT22;2695;49.444;11.054;2022-12-11T09:37:26;2.80;99.90
5346;DHT22;2695;49.444;11.054;2022-12-11T09:39:55;2.70;99.90
5346;DHT22;2695;49.444;11.054;2022-12-11T09:42:35;2.60;99.90
5346;DHT22;2695;49.444;11.054;2022-12-11T09:45:12;2.40;99.90
5346;DHT22;2695;49.444;11.054;2022-12-11T09:47:43;2.40;99.90
5346;DHT22;2695;49.444;11.054;2022-12-11T09:50:15;2.40;99.90
5346;DHT22;2695;49.444;11.054;2022-12-11T09:52:54;2.40;99.90
5346;DHT22;2695;49.444;11.054;2022-12-11T09:55:29;2.30;99.90
5346;DHT22;2695;49.444;11.054;2022-12-11T09:58:04;2.30;99.90
5346;DHT22;2695;49.444;11.054;2022-12-11T10:00:38;2.20;99.90
5346;DHT22;2695;49.444;11.054;2022-12-11T10:03:39;2.20;99.90
5346;DHT22;2695;49.444;11.054;2022-12-11T10:06:16;2.20;99.90
5346;DHT22;2695;49.444;11.054;2022-12-11T10:08:56;2.20;99.90
5346;DHT22;2695;49.444;11.054;2022-12-11T10:11:41;2.20;99.90
5346;DHT22;2695;49.444;11.054;2022-12-11T10:14:27;2.20;99.90
5346;DHT22;2695;49.444;11.054;2022-12-11T10:17:04;2.20;99.90
5346;DHT22;2695;49.444;11.054;2022-12-11T10:19:35;2.20;99.90
5346;DHT22;2695;49.444;11.054;2022-12-11T10:22:03;2.30;99.90
5346;DHT22;2695;49.444;11.054;2022-12-11T10:24:37;2.40;99.90
5346;DHT22;2695;49.444;11.054;2022-12-11T10:27:29;2.40;99.90
5346;DHT22;2695;49.444;11.054;2022-12-11T10:30:06;2.30;99.90
5346;DHT22;2695;49.444;11.054;2022-12-11T10:32:42;2.30;99.90
5346;DHT22;2695;49.444;11.054;2022-12-11T10:35:19;2.30;99.90
5346;DHT22;2695;49.444;11.054;2022-12-11T10:37:51;2.30;99.90
5346;DHT22;2695;49.444;11.054;2022-12-11T10:40:24;2.30;99.90
5346;DHT22;2695;49.444;11.054;2022-12-11T10:42:56;2.30;99.90
5346;DHT22;2695;49.444;11.054;2022-12-11T10:45:24;2.40;99.90
5346;DHT22;2695;49.444;11.054;2022-12-11T10:48:01;2.40;99.90
5346;DHT22;2695;49.444;11.054;2022-12-11T10:50:29;2.40;99.90
5346;DHT22;2695;49.444;11.054;2022-12-11T10:52:58;2.50;99.90
5346;DHT22;2695;49.444;11.054;2022-12-11T10:55:33;2.50;99.90
5346;DHT22;2695;49.444;11.054;2022-12-11T10:58:05;2.60;99.90
5346;DHT22;2695;49.444;11.054;2022-12-11T11:00:35;2.60;99.90
5346;DHT22;2695;49.444;11.054;2022-12-11T11:03:04;2.60;99.90
5346;DHT22;2695;49.444;11.054;2022-12-11T11:05:35;2.80;99.90
5346;DHT22;2695;49.444;11.054;2022-12-11T11:08:13;2.60;99.90
5346;DHT22;2695;49.444;11.054;2022-12-11T11:10:54;2.60;99.90
5346;DHT22;2695;49.444;11.054;2022-12-11T11:13:24;2.60;99.90
5346;DHT22;2695;49.444;11.054;2022-12-11T11:15:58;2.50;99.90
5346;DHT22;2695;49.444;11.054;2022-12-11T11:18:28;2.50;99.90
5346;DHT22;2695;49.444;11.054;2022-12-11T11:20:58;2.40;99.90
5346;DHT22;2695;49.444;11.054;2022-12-11T11:23:27;2.40;99.90
5346;DHT22;2695;49.444;11.054;2022-12-11T11:26:07;2.50;99.90
5346;DHT22;2695;49.444;11.054;2022-12-11T11:28:52;2.40;99.90
5346;DHT22;2695;49.444;11.054;2022-12-11T11:31:32;2.50;99.90
5346;DHT22;2695;49.444;11.054;2022-12-11T11:34:04;2.50;99.90
5346;DHT22;2695;49.444;11.054;2022-12-11T11:36:35;2.70;99.90
5346;DHT22;2695;49.444;11.054;2022-12-11T11:39:16;2.70;99.90
5346;DHT22;2695;49.444;11.054;2022-12-11T11:41:52;2.60;99.90
5346;DHT22;2695;49.444;11.054;2022-12-11T11:44:25;2.60;99.90
5346;DHT22;2695;49.444;11.054;2022-12-11T11:46:58;2.60;99.90
5346;DHT22;2695;49.444;11.054;2022-12-11T11:49:43;2.70;99.90
5346;DHT22;2695;49.444;11.054;2022-12-11T11:52:16;2.50;99.90
5346;DHT22;2695;49.444;11.054;2022-12-11T11:54:51;2.50;99.90
5346;DHT22;2695;49.444;11.054;2022-12-11T11:57:42;2.50;99.90
5346;DHT22;2695;49.444;11.054;2022-12-11T12:00:18;2.50;99.90
5346;DHT22;2695;49.444;11.054;2022-12-11T12:02:47;2.50;99.90
5346;DHT22;2695;49.444;11.054;2022-12-11T12:05:22;2.70;99.90
5346;DHT22;2695;49.444;11.054;2022-12-11T12:08:00;2.70;99.90
5346;DHT22;2695;49.444;11.054;2022-12-11T12:10:36;2.90;99.90
5346;DHT22;2695;49.444;11.054;2022-12-11T12:13:15;3.10;99.90
5346;DHT22;2695;49.444;11.054;2022-12-11T12:16:09;3.10;99.90
5346;DHT22;2695;49.444;11.054;2022-12-11T12:19:02;3.00;99.90
5346;DHT22;2695;49.444;11.054;2022-12-11T12:21:35;2.80;99.90
5346;DHT22;2695;49.444;11.054;2022-12-11T12:24:26;2.80;99.90
5346;DHT22;2695;49.444;11.054;2022-12-11T12:27:00;2.70;99.90
5346;DHT22;2695;49.444;11.054;2022-12-11T12:29:55;2.80;99.90
5346;DHT22;2695;49.444;11.054;2022-12-11T12:32:31;2.90;99.90
5346;DHT22;2695;49.444;11.054;2022-12-11T12:35:11;3.00;99.90
5346;DHT22;2695;49.444;11.054;2022-12-11T12:37:53;3.00;99.90
5346;DHT22;2695;49.444;11.054;2022-12-11T12:40:29;3.00;99.90
5346;DHT22;2695;49.444;11.054;2022-12-11T12:43:04;2.90;99.90
5346;DHT22;2695;49.444;11.054;2022-12-11T12:45:45;2.80;99.90
5346;DHT22;2695;49.444;11.054;2022-12-11T12:48:16;2.80;99.90
5346;DHT22;2695;49.444;11.054;2022-12-11T12:50:47;2.70;99.90
5346;DHT22;2695;49.444;11.054;2022-12-11T12:53:18;2.60;99.90
5346;DHT22;2695;49.444;11.054;2022-12-11T12:55:47;2.50;99.90
5346;DHT22;2695;49.444;11.054;2022-12-11T12:58:29;2.60;99.90
5346;DHT22;2695;49.444;11.054;2022-12-11T13:01:08;2.60;99.90
5346;DHT22;2695;49.444;11.054;2022-12-11T13:03:49;2.40;99.90
5346;DHT22;2695;49.444;11.054;2022-12-11T13:06:32;2.40;99.90
5346;DHT22;2695;49.444;11.054;2022-12-11T13:09:16;2.40;99.90
5346;DHT22;2695;49.444;11.054;2022-12-11T13:11:46;2.30;99.90
5346;DHT22;2695;49.444;11.054;2022-12-11T13:14:27;2.30;99.90
5346;DHT22;2695;49.444;11.054;2022-12-11T13:17:23;2.20;99.90
5346;DHT22;2695;49.444;11.054;2022-12-11T13:23:16;2.40;99.90
5346;DHT22;2695;49.444;11.054;2022-12-11T13:26:03;2.40;99.90
5346;DHT22;2695;49.444;11.054;2022-12-11T13:32:32;2.50;99.90
5346;DHT22;2695;49.444;11.054;2022-12-11T13:35:15;2.50;99.90
5346;DHT22;2695;49.444;11.054;2022-12-11T13:37:48;2.60;99.90
5346;DHT22;2695;49.444;11.054;2022-12-11T13:40:20;2.60;99.90
5346;DHT22;2695;49.444;11.054;2022-12-11T13:42:54;2.60;99.90
5346;DHT22;2695;49.444;11.054;2022-12-11T13:45:27;2.50;99.90
5346;DHT22;2695;49.444;11.054;2022-12-11T13:48:00;2.50;99.90
5346;DHT22;2695;49.444;11.054;2022-12-11T13:50:31;2.30;99.90
5346;DHT22;2695;49.444;11.054;2022-12-11T13:53:02;2.30;99.90
5346;DHT22;2695;49.444;11.054;2022-12-11T13:55:33;2.20;99.90
5346;DHT22;2695;49.444;11.054;2022-12-11T13:58:02;2.20;99.90
5346;DHT22;2695;49.444;11.054;2022-12-11T14:00:31;2.10;99.90
5346;DHT22;2695;49.444;11.054;2022-12-11T14:03:03;2.00;99.90
5346;DHT22;2695;49.444;11.054;2022-12-11T14:05:33;1.90;99.90
5346;DHT22;2695;49.444;11.054;2022-12-11T14:08:05;1.90;99.90
5346;DHT22;2695;49.444;11.054;2022-12-11T14:10:38;1.80;99.90
5346;DHT22;2695;49.444;11.054;2022-12-11T14:13:15;1.80;99.90
5346;DHT22;2695;49.444;11.054;2022-12-11T14:15:47;1.80;99.90
5346;DHT22;2695;49.444;11.054;2022-12-11T14:18:20;1.80;99.90
5346;DHT22;2695;49.444;11.054;2022-12-11T14:20:54;1.70;99.90
5346;DHT22;2695;49.444;11.054;2022-12-11T14:23:24;1.70;99.90
5346;DHT22;2695;49.444;11.054;2022-12-11T14:26:01;1.60;99.90
5346;DHT22;2695;49.444;11.054;2022-12-11T14:28:36;1.50;99.90
5346;DHT22;2695;49.444;11.054;2022-12-11T14:31:05;1.60;99.90
5346;DHT22;2695;49.444;11.054;2022-12-11T14:33:39;1.50;99.90
5346;DHT22;2695;49.444;11.054;2022-12-11T14:36:09;1.50;99.90
5346;DHT22;2695;49.444;11.054;2022-12-11T14:38:43;1.50;99.90
5346;DHT22;2695;49.444;11.054;2022-12-11T14:41:15;1.60;99.90
5346;DHT22;2695;49.444;11.054;2022-12-11T14:43:48;1.50;99.90
5346;DHT22;2695;49.444;11.054;2022-12-11T14:46:22;1.60;99.90
5346;DHT22;2695;49.444;11.054;2022-12-11T14:48:56;1.50;99.90
5346;DHT22;2695;49.444;11.054;2022-12-11T14:51:29;1.50;99.90
5346;DHT22;2695;49.444;11.054;2022-12-11T14:54:01;1.60;99.90
5346;DHT22;2695;49.444;11.054;2022-12-11T14:56:30;1.60;99.90
5346;DHT22;2695;49.444;11.054;2022-12-11T14:59:19;1.70;99.90
5346;DHT22;2695;49.444;11.054;2022-12-11T15:02:00;1.60;99.90
5346;DHT22;2695;49.444;11.054;2022-12-11T15:04:32;1.50;99.90
5346;DHT22;2695;49.444;11.054;2022-12-11T15:07:17;1.60;99.90
5346;DHT22;2695;49.444;11.054;2022-12-11T15:10:00;1.50;99.90
5346;DHT22;2695;49.444;11.054;2022-12-11T15:12:30;1.60;99.90
5346;DHT22;2695;49.444;11.054;2022-12-11T15:15:00;1.60;99.90
5346;DHT22;2695;49.444;11.054;2022-12-11T15:17:30;1.40;99.90
5346;DHT22;2695;49.444;11.054;2022-12-11T15:20:05;1.40;99.90
5346;DHT22;2695;49.444;11.054;2022-12-11T15:22:34;1.40;99.90
5346;DHT22;2695;49.444;11.054;2022-12-11T15:25:03;1.40;99.90
5346;DHT22;2695;49.444;11.054;2022-12-11T15:27:33;1.40;99.90
5346;DHT22;2695;49.444;11.054;2022-12-11T15:30:19;1.40;99.90
5346;DHT22;2695;49.444;11.054;2022-12-11T15:33:04;1.40;99.90
5346;DHT22;2695;49.444;11.054;2022-12-11T15:35:56;1.40;99.90
5346;DHT22;2695;49.444;11.054;2022-12-11T15:38:34;1.40;99.90
5346;DHT22;2695;49.444;11.054;2022-12-11T15:41:04;1.30;99.90
5346;DHT22;2695;49.444;11.054;2022-12-11T15:43:35;1.30;99.90
5346;DHT22;2695;49.444;11.054;2022-12-11T15:46:05;1.30;99.90
5346;DHT22;2695;49.444;11.054;2022-12-11T15:48:33;1.20;99.90
5346;DHT22;2695;49.444;11.054;2022-12-11T15:51:03;1.20;99.90
5346;DHT22;2695;49.444;11.054;2022-12-11T15:53:31;1.20;99.90
5346;DHT22;2695;49.444;11.054;2022-12-11T15:55:59;1.30;99.90
5346;DHT22;2695;49.444;11.054;2022-12-11T15:58:27;1.30;99.90
5346;DHT22;2695;49.444;11.054;2022-12-11T16:00:57;1.20;99.90
5346;DHT22;2695;49.444;11.054;2022-12-11T16:03:25;1.20;99.90
5346;DHT22;2695;49.444;11.054;2022-12-11T16:05:53;1.20;99.90
5346;DHT22;2695;49.444;11.054;2022-12-11T16:08:23;1.20;99.90
5346;DHT22;2695;49.444;11.054;2022-12-11T16:10:52;1.30;99.90
5346;DHT22;2695;49.444;11.054;2022-12-11T16:13:21;1.30;99.90
5346;DHT22;2695;49.444;11.054;2022-12-11T16:15:50;1.20;99.90
5346;DHT22;2695;49.444;11.054;2022-12-11T16:18:21;1.20;99.90
5346;DHT22;2695;49.444;11.054;2022-12-11T16:20:50;1.20;99.90
5346;DHT22;2695;49.444;11.054;2022-12-11T16:23:18;1.20;99.90
5346;DHT22;2695;49.444;11.054;2022-12-11T16:25:48;1.10;99.90
5346;DHT22;2695;49.444;11.054;2022-12-11T16:28:18;1.00;99.90
5346;DHT22;2695;49.444;11.054;2022-12-11T16:30:47;1.00;99.90
5346;DHT22;2695;49.444;11.054;2022-12-11T16:33:16;1.10;99.90
5346;DHT22;2695;49.444;11.054;2022-12-11T16:35:47;1.10;99.90
5346;DHT22;2695;49.444;11.054;2022-12-11T16:38:16;1.00;99.90
5346;DHT22;2695;49.444;11.054;2022-12-11T16:40:44;1.00;99.90
5346;DHT22;2695;49.444;11.054;2022-12-11T16:43:14;1.10;99.90
5346;DHT22;2695;49.444;11.054;2022-12-11T16:45:42;1.00;99.90
5346;DHT22;2695;49.444;11.054;2022-12-11T16:48:10;1.00;99.90
5346;DHT22;2695;49.444;11.054;2022-12-11T16:50:39;1.00;99.90
5346;DHT22;2695;49.444;11.054;2022-12-11T16:53:07;1.00;99.90
5346;DHT22;2695;49.444;11.054;2022-12-11T16:55:37;1.00;99.90
5346;DHT22;2695;49.444;11.054;2022-12-11T16:58:06;0.90;99.90
5346;DHT22;2695;49.444;11.054;2022-12-11T17:00:37;0.90;99.90
5346;DHT22;2695;49.444;11.054;2022-12-11T17:03:05;0.90;99.90
5346;DHT22;2695;49.444;11.054;2022-12-11T17:05:33;1.10;99.90
5346;DHT22;2695;49.444;11.054;2022-12-11T17:08:01;1.00;99.90
5346;DHT22;2695;49.444;11.054;2022-12-11T17:10:30;1.10;99.90
5346;DHT22;2695;49.444;11.054;2022-12-11T17:13:01;1.10;99.90
5346;DHT22;2695;49.444;11.054;2022-12-11T17:15:29;1.10;99.90
5346;DHT22;2695;49.444;11.054;2022-12-11T17:17:59;1.10;99.90
5346;DHT22;2695;49.444;11.054;2022-12-11T17:20:27;1.10;99.90
5346;DHT22;2695;49.444;11.054;2022-12-11T17:22:55;1.10;99.90
5346;DHT22;2695;49.444;11.054;2022-12-11T17:25:24;1.10;99.90
5346;DHT22;2695;49.444;11.054;2022-12-11T17:27:52;1.10;99.90
5346;DHT22;2695;49.444;11.054;2022-12-11T17:30:20;1.10;99.90
5346;DHT22;2695;49.444;11.054;2022-12-11T17:32:49;1.10;99.90
5346;DHT22;2695;49.444;11.054;2022-12-11T17:35:19;1.10;99.90
5346;DHT22;2695;49.444;11.054;2022-12-11T17:37:47;1.30;99.90
5346;DHT22;2695;49.444;11.054;2022-12-11T17:40:15;1.20;99.90
5346;DHT22;2695;49.444;11.054;2022-12-11T17:42:44;1.10;99.90
5346;DHT22;2695;49.444;11.054;2022-12-11T17:45:13;1.30;99.90
5346;DHT22;2695;49.444;11.054;2022-12-11T17:47:41;1.20;99.90
5346;DHT22;2695;49.444;11.054;2022-12-11T17:50:10;1.20;99.90
5346;DHT22;2695;49.444;11.054;2022-12-11T17:52:40;1.10;99.90
5346;DHT22;2695;49.444;11.054;2022-12-11T17:55:10;1.10;99.90
5346;DHT22;2695;49.444;11.054;2022-12-11T17:57:38;1.10;99.90
5346;DHT22;2695;49.444;11.054;2022-12-11T18:00:08;1.10;99.90
5346;DHT22;2695;49.444;11.054;2022-12-11T18:02:36;1.10;99.90
5346;DHT22;2695;49.444;11.054;2022-12-11T18:05:05;1.10;99.90
5346;DHT22;2695;49.444;11.054;2022-12-11T18:07:35;1.20;99.90
5346;DHT22;2695;49.444;11.054;2022-12-11T18:10:05;1.20;99.90
5346;DHT22;2695;49.444;11.054;2022-12-11T18:12:34;1.10;99.90
5346;DHT22;2695;49.444;11.054;2022-12-11T18:15:06;1.10;99.90
5346;DHT22;2695;49.444;11.054;2022-12-11T18:17:36;1.20;99.90
5346;DHT22;2695;49.444;11.054;2022-12-11T18:20:05;1.10;99.90
5346;DHT22;2695;49.444;11.054;2022-12-11T18:22:33;1.10;99.90
5346;DHT22;2695;49.444;11.054;2022-12-11T18:25:02;1.10;99.90
5346;DHT22;2695;49.444;11.054;2022-12-11T18:27:37;1.10;99.90
5346;DHT22;2695;49.444;11.054;2022-12-11T18:30:06;1.10;99.90
5346;DHT22;2695;49.444;11.054;2022-12-11T18:32:35;1.20;99.90
5346;DHT22;2695;49.444;11.054;2022-12-11T18:35:03;1.20;99.90
5346;DHT22;2695;49.444;11.054;2022-12-11T18:37:32;1.30;99.90
5346;DHT22;2695;49.444;11.054;2022-12-11T18:40:00;1.30;99.90